createdAt,value
2018-04-04T00:01:32.102Z,3.90
2018-04-04T00:03:59.869Z,3.67
2018-04-04T00:06:27.642Z,3.57
2018-04-04T00:08:55.417Z,3.83
2018-04-04T00:11:23.193Z,4.30
2018-04-04T00:13:50.966Z,4.30
2018-04-04T00:16:19.521Z,5.23
2018-04-04T00:18:47.313Z,3.87
2018-04-04T00:21:15.870Z,4.07
2018-04-04T00:23:43.695Z,3.73
2018-04-04T00:26:11.478Z,5.40
2018-04-04T00:28:39.270Z,5.17
2018-04-04T00:31:07.056Z,4.90
2018-04-04T00:33:35.652Z,4.70
2018-04-04T00:36:03.453Z,5.70
2018-04-04T00:38:31.244Z,5.70
2018-04-04T00:40:59.028Z,4.43
2018-04-04T00:43:27.576Z,4.10
2018-04-04T00:45:55.352Z,3.83
2018-04-04T00:48:23.166Z,4.03
2018-04-04T00:50:51.006Z,3.80
2018-04-04T00:53:19.553Z,4.13
2018-04-04T00:55:47.347Z,5.30
2018-04-04T00:58:15.124Z,4.50
2018-04-04T01:00:43.673Z,4.27
2018-04-04T01:03:11.491Z,4.13
2018-04-04T01:05:39.271Z,3.80
2018-04-04T01:08:07.074Z,4.60
2018-04-04T01:10:34.905Z,3.80
2018-04-04T01:13:02.687Z,3.60
2018-04-04T01:15:30.465Z,3.90
2018-04-04T01:17:58.286Z,3.50
2018-04-04T01:20:26.075Z,3.10
2018-04-04T01:22:53.853Z,2.73
2018-04-04T01:25:21.649Z,2.73
2018-04-04T01:27:50.194Z,2.83
2018-04-04T01:30:18.069Z,2.50
2018-04-04T01:32:45.850Z,2.77
2018-04-04T01:35:13.624Z,2.63
2018-04-04T01:37:42.159Z,2.70
2018-04-04T01:40:09.937Z,2.83
2018-04-04T01:42:37.732Z,2.40
2018-04-04T01:45:06.335Z,3.33
2018-04-04T01:47:34.870Z,3.13
2018-04-04T01:50:02.657Z,2.30
2018-04-04T01:52:31.217Z,2.60
2018-04-04T01:54:59.017Z,2.23
2018-04-04T01:57:27.574Z,3.53
2018-04-04T01:59:55.365Z,3.83
2018-04-04T02:02:23.916Z,4.20
2018-04-04T02:04:51.697Z,3.60
2018-04-04T02:07:19.476Z,4.40
2018-04-04T02:09:48.021Z,3.90
2018-04-04T02:12:15.813Z,4.00
2018-04-04T02:14:44.382Z,2.60
2018-04-04T02:17:12.165Z,3.53
2018-04-04T02:19:40.706Z,2.10
2018-04-04T02:22:08.480Z,1.70
2018-04-04T02:24:36.254Z,2.00
2018-04-04T02:27:04.053Z,2.13
2018-04-04T02:29:32.585Z,1.97
2018-04-04T02:32:00.384Z,1.50
2018-04-04T02:34:28.921Z,1.80
2018-04-04T02:36:56.690Z,1.80
2018-04-04T02:39:24.461Z,2.40
2018-04-04T02:41:52.240Z,3.23
2018-04-04T02:44:20.033Z,2.53
2018-04-04T02:46:48.574Z,3.13
2018-04-04T02:49:16.361Z,2.00
2018-04-04T02:51:44.187Z,2.90
2018-04-04T02:54:12.009Z,2.40
2018-04-04T02:56:40.569Z,3.10
2018-04-04T02:59:08.369Z,3.90
2018-04-04T03:01:36.901Z,2.87
2018-04-04T03:04:04.669Z,3.30
2018-04-04T03:06:32.477Z,2.90
2018-04-04T03:09:00.258Z,3.20
2018-04-04T03:11:28.046Z,2.70
2018-04-04T03:13:55.821Z,1.70
2018-04-04T03:16:23.642Z,1.50
2018-04-04T03:18:51.411Z,1.87
2018-04-04T03:21:19.198Z,1.77
2018-04-04T03:23:47.045Z,2.20
2018-04-04T03:26:14.877Z,1.60
2018-04-04T03:28:43.461Z,1.48
2018-04-04T03:31:12.010Z,2.80
2018-04-04T03:33:39.803Z,3.07
2018-04-04T03:36:07.586Z,3.27
2018-04-04T03:38:36.136Z,3.23
2018-04-04T03:41:03.983Z,3.73
2018-04-04T03:43:31.766Z,4.00
2018-04-04T03:45:59.549Z,3.40
2018-04-04T03:48:28.097Z,3.20
2018-04-04T03:50:55.882Z,2.90
2018-04-04T03:53:23.661Z,3.73
2018-04-04T03:55:52.212Z,4.10
2018-04-04T03:58:20.035Z,3.63
2018-04-04T04:00:47.832Z,3.60
2018-04-04T04:03:15.692Z,3.70
2018-04-04T04:05:43.473Z,3.80
2018-04-04T04:08:11.255Z,4.13
2018-04-04T04:10:39.060Z,3.40
2018-04-04T04:13:06.847Z,3.27
2018-04-04T04:15:34.626Z,2.90
2018-04-04T04:18:02.509Z,3.53
2018-04-04T04:20:30.294Z,3.47
2018-04-04T04:22:58.834Z,2.63
2018-04-04T04:25:26.649Z,3.17
2018-04-04T04:27:54.457Z,3.77
2018-04-04T04:30:22.228Z,3.13
2018-04-04T04:32:50.022Z,3.60
2018-04-04T04:35:17.824Z,3.23
2018-04-04T04:37:45.674Z,3.23
2018-04-04T04:40:14.233Z,2.60
2018-04-04T04:42:42.038Z,2.97
2018-04-04T04:45:09.834Z,3.67
2018-04-04T04:47:37.628Z,3.50
2018-04-04T04:50:05.437Z,2.43
2018-04-04T04:52:33.338Z,2.80
2018-04-04T04:55:01.119Z,3.60
2018-04-04T04:57:28.915Z,2.87
2018-04-04T04:59:57.551Z,3.33
2018-04-04T05:02:25.333Z,3.27
2018-04-04T05:04:53.133Z,3.13
2018-04-04T05:07:20.939Z,3.17
2018-04-04T05:09:48.806Z,2.53
2018-04-04T05:12:16.674Z,2.13
2018-04-04T05:14:44.454Z,2.60
2018-04-04T05:17:12.279Z,2.70
2018-04-04T05:19:40.081Z,1.93
2018-04-04T05:22:07.879Z,2.60
2018-04-04T05:24:35.696Z,2.70
2018-04-04T05:27:03.508Z,2.13
2018-04-04T05:29:32.061Z,2.37
2018-04-04T05:31:59.903Z,2.47
2018-04-04T05:34:27.688Z,2.23
2018-04-04T05:36:55.486Z,2.17
2018-04-04T05:39:24.064Z,2.50
2018-04-04T05:41:52.603Z,2.63
2018-04-04T05:44:20.398Z,2.23
2018-04-04T05:46:48.181Z,2.70
2018-04-04T05:49:17.234Z,2.10
2018-04-04T05:51:45.318Z,2.43
2018-04-04T05:54:13.183Z,3.20
2018-04-04T05:56:40.975Z,2.07
2018-04-04T05:59:12.405Z,2.50
2018-04-04T06:01:40.246Z,2.97
2018-04-04T06:04:08.021Z,3.43
2018-04-04T06:06:35.801Z,2.23
2018-04-04T06:09:03.827Z,2.03
2018-04-04T06:11:31.594Z,1.70
2018-04-04T06:13:59.363Z,2.10
2018-04-04T06:16:27.146Z,2.53
2018-04-04T06:18:54.937Z,2.73
2018-04-04T06:21:23.536Z,2.60
2018-04-04T06:23:52.219Z,2.50
2018-04-04T06:26:20.770Z,2.73
2018-04-04T06:28:48.554Z,2.27
2018-04-04T06:31:17.124Z,2.80
2018-04-04T06:33:44.902Z,3.23
2018-04-04T06:36:13.471Z,3.07
2018-04-04T06:38:41.272Z,3.00
2018-04-04T06:41:09.064Z,2.50
2018-04-04T06:43:36.848Z,2.70
2018-04-04T06:46:04.702Z,2.97
2018-04-04T06:48:32.485Z,3.50
2018-04-04T06:51:01.053Z,4.73
2018-04-04T06:53:28.858Z,4.90
2018-04-04T06:55:56.656Z,5.60
2018-04-04T06:58:24.437Z,4.53
2018-04-04T07:00:52.215Z,3.37
2018-04-04T07:03:20.010Z,2.47
2018-04-04T07:05:48.557Z,3.00
2018-04-04T07:08:16.353Z,2.50
2018-04-04T07:10:44.204Z,2.90
2018-04-04T07:13:12.035Z,2.37
2018-04-04T07:15:39.825Z,2.90
2018-04-04T07:18:07.609Z,3.10
2018-04-04T07:20:35.400Z,3.00
2018-04-04T07:23:03.980Z,3.70
2018-04-04T07:25:32.513Z,3.23
2018-04-04T07:28:00.310Z,3.00
2018-04-04T07:30:28.854Z,3.77
2018-04-04T07:32:56.631Z,2.37
2018-04-04T07:35:25.263Z,3.93
2018-04-04T07:37:53.054Z,3.13
2018-04-04T07:40:20.878Z,3.37
2018-04-04T07:42:49.515Z,3.23
2018-04-04T07:45:17.297Z,3.77
2018-04-04T07:47:45.099Z,4.00
2018-04-04T07:50:13.662Z,3.80
2018-04-04T07:52:41.451Z,2.90
2018-04-04T07:55:09.990Z,2.97
2018-04-04T07:57:37.778Z,3.30
2018-04-04T08:00:05.604Z,3.43
2018-04-04T08:02:33.416Z,3.50
2018-04-04T08:05:01.996Z,4.50
2018-04-04T08:07:30.543Z,3.57
2018-04-04T08:09:58.341Z,5.07
2018-04-04T08:12:26.905Z,4.77
2018-04-04T08:14:55.634Z,4.13
2018-04-04T08:17:23.447Z,4.03
2018-04-04T08:19:51.220Z,4.10
2018-04-04T08:22:19.122Z,5.37
2018-04-04T08:24:46.936Z,4.53
2018-04-04T08:27:14.708Z,4.80
2018-04-04T08:29:42.481Z,5.93
2018-04-04T08:32:10.262Z,4.13
2018-04-04T08:34:38.835Z,5.00
2018-04-04T08:37:07.400Z,4.73
2018-04-04T08:39:35.222Z,5.37
2018-04-04T08:42:03.017Z,4.00
2018-04-04T08:44:30.803Z,4.60
2018-04-04T08:46:58.595Z,4.73
2018-04-04T08:49:27.157Z,5.63
2018-04-04T08:51:54.950Z,5.20
2018-04-04T08:54:23.489Z,5.87
2018-04-04T08:56:51.281Z,6.22
2018-04-04T08:59:19.841Z,5.57
2018-04-04T09:01:47.629Z,8.90
2018-04-04T09:04:16.236Z,4.90
2018-04-04T09:06:44.083Z,4.43
2018-04-04T09:09:12.641Z,3.87
2018-04-04T09:11:40.450Z,5.43
2018-04-04T09:14:08.265Z,3.60
2018-04-04T09:16:36.806Z,5.30
2018-04-04T09:19:04.632Z,5.40
2018-04-04T09:21:32.397Z,6.43
2018-04-04T09:24:00.211Z,4.17
2018-04-04T09:26:27.990Z,4.57
2018-04-04T09:28:55.802Z,5.07
2018-04-04T09:31:24.345Z,5.83
2018-04-04T09:33:52.135Z,6.67
2018-04-04T09:36:19.943Z,5.60
2018-04-04T09:38:47.718Z,4.90
2018-04-04T09:41:15.489Z,4.83
2018-04-04T09:43:43.273Z,4.80
2018-04-04T09:46:11.068Z,4.87
2018-04-04T09:48:39.608Z,5.27
2018-04-04T09:51:07.414Z,5.03
2018-04-04T09:53:35.185Z,5.20
2018-04-04T09:56:03.790Z,5.00
2018-04-04T09:58:31.572Z,4.43
2018-04-04T10:01:09.321Z,5.60
2018-04-04T10:03:37.886Z,5.50
2018-04-04T10:06:05.682Z,5.73
2018-04-04T10:08:34.239Z,5.40
2018-04-04T10:11:02.018Z,6.23
2018-04-04T10:13:30.568Z,5.53
2018-04-04T10:15:58.359Z,5.87
2018-04-04T10:18:26.134Z,5.90
2018-04-04T10:20:54.673Z,6.37
2018-04-04T10:23:22.449Z,6.40
2018-04-04T10:25:50.222Z,4.60
2018-04-04T10:28:18.007Z,5.70
2018-04-04T10:30:46.557Z,5.50
2018-04-04T10:33:14.330Z,6.00
2018-04-04T10:35:42.131Z,6.23
2018-04-04T10:38:09.965Z,5.00
2018-04-04T10:40:37.748Z,6.27
2018-04-04T10:43:06.298Z,6.20
2018-04-04T10:45:34.876Z,5.10
2018-04-04T10:48:02.684Z,5.13
2018-04-04T10:50:31.276Z,5.62
2018-04-04T10:52:59.806Z,4.93
2018-04-04T10:55:27.574Z,5.17
2018-04-04T10:57:55.370Z,6.17
2018-04-04T11:00:23.900Z,4.67
2018-04-04T11:02:51.738Z,5.03
2018-04-04T11:05:19.521Z,4.87
2018-04-04T11:07:47.294Z,5.23
2018-04-04T11:10:15.077Z,4.70
2018-04-04T11:12:42.866Z,5.30
2018-04-04T11:15:10.657Z,5.33
2018-04-04T11:17:38.443Z,6.63
2018-04-04T11:20:06.270Z,4.30
2018-04-04T11:22:34.834Z,5.20
2018-04-04T11:25:02.610Z,5.60
2018-04-04T11:27:31.149Z,4.30
2018-04-04T11:29:58.925Z,5.60
2018-04-04T11:32:26.721Z,6.20
2018-04-04T11:34:55.278Z,5.50
2018-04-04T11:37:23.823Z,6.40
2018-04-04T11:39:51.593Z,6.70
2018-04-04T11:42:19.370Z,6.20
2018-04-04T11:44:47.145Z,5.17
2018-04-04T11:47:15.767Z,5.87
2018-04-04T11:49:44.331Z,6.97
2018-04-04T11:52:12.145Z,5.87
2018-04-04T11:54:39.920Z,5.60
2018-04-04T11:57:07.693Z,6.57
2018-04-04T11:59:35.469Z,6.23
2018-04-04T12:02:03.308Z,5.40
2018-04-04T12:04:31.093Z,6.20
2018-04-04T12:06:58.885Z,6.20
2018-04-04T12:09:26.665Z,6.20
2018-04-04T12:11:55.928Z,6.27
2018-04-04T12:14:24.558Z,5.47
2018-04-04T12:16:53.129Z,5.00
2018-04-04T12:19:20.920Z,6.40
2018-04-04T12:21:48.802Z,5.85
2018-04-04T12:24:16.646Z,5.07
2018-04-04T12:26:44.417Z,5.60
2018-04-04T12:29:12.181Z,5.33
2018-04-04T12:31:39.957Z,5.53
2018-04-04T12:34:07.733Z,6.27
2018-04-04T12:36:35.509Z,5.77
2018-04-04T12:39:03.450Z,5.47
2018-04-04T12:41:31.229Z,5.90
2018-04-04T12:43:59.001Z,5.73
2018-04-04T12:46:26.787Z,5.17
2018-04-04T12:49:07.587Z,6.07
2018-04-04T12:51:35.396Z,5.90
2018-04-04T12:54:03.179Z,5.90
2018-04-04T12:56:31.033Z,5.90
2018-04-04T12:58:58.889Z,5.30
2018-04-04T13:01:26.705Z,5.77
2018-04-04T13:03:55.284Z,5.93
2018-04-04T13:06:23.821Z,5.63
2018-04-04T13:08:51.595Z,5.87
2018-04-04T13:11:19.365Z,6.20
2018-04-04T13:13:47.146Z,6.47
2018-04-04T13:16:26.721Z,4.87
2018-04-04T13:18:54.534Z,6.77
2018-04-04T13:21:22.327Z,5.90
2018-04-04T13:23:51.061Z,6.73
2018-04-04T13:26:18.861Z,6.20
2018-04-04T13:28:46.812Z,5.80
2018-04-04T13:31:15.415Z,5.07
2018-04-04T13:33:43.209Z,5.33
2018-04-04T13:36:11.774Z,6.50
2018-04-04T13:38:39.640Z,4.53
2018-04-04T13:41:07.518Z,6.00
2018-04-04T13:43:36.074Z,5.93
2018-04-04T13:46:03.957Z,5.40
2018-04-04T13:48:32.496Z,6.03
2018-04-04T13:51:00.280Z,6.13
2018-04-04T13:53:28.081Z,6.43
2018-04-04T13:55:56.628Z,6.20
2018-04-04T13:58:24.455Z,5.10
2018-04-04T14:00:52.416Z,6.17
2018-04-04T14:03:20.220Z,7.17
2018-04-04T14:05:48.042Z,6.43
2018-04-04T14:08:15.845Z,6.50
2018-04-04T14:10:43.649Z,6.30
2018-04-04T14:13:11.483Z,6.60
2018-04-04T14:15:39.336Z,5.87
2018-04-04T14:18:07.153Z,6.10
2018-04-04T14:20:35.709Z,6.80
2018-04-04T14:23:03.494Z,6.30
2018-04-04T14:25:32.060Z,5.90
2018-04-04T14:27:59.936Z,6.00
2018-04-04T14:30:28.495Z,5.40
2018-04-04T14:32:56.281Z,6.30
2018-04-04T14:35:24.070Z,6.23
2018-04-04T14:37:52.642Z,6.37
2018-04-04T14:40:21.189Z,6.70
2018-04-04T14:42:48.968Z,6.30
2018-04-04T14:45:16.794Z,7.00
2018-04-04T14:47:44.598Z,6.10
2018-04-04T14:50:12.377Z,6.80
2018-04-04T14:52:40.929Z,7.67
2018-04-04T14:55:08.714Z,6.57
2018-04-04T14:57:36.510Z,5.77
2018-04-04T15:00:04.360Z,6.60
2018-04-04T15:02:32.939Z,7.20
2018-04-04T15:05:01.495Z,6.30
2018-04-04T15:07:29.294Z,6.90
2018-04-04T15:09:57.842Z,6.40
2018-04-04T15:12:25.635Z,6.87
2018-04-04T15:14:54.217Z,6.50
2018-04-04T15:17:22.763Z,5.23
2018-04-04T15:19:50.582Z,6.50
2018-04-04T15:22:19.126Z,6.17
2018-04-04T15:24:46.942Z,6.63
2018-04-04T15:27:14.730Z,6.20
2018-04-04T15:29:42.505Z,5.57
2018-04-04T15:32:10.283Z,6.13
2018-04-04T15:34:38.102Z,7.10
2018-04-04T15:37:05.977Z,6.27
2018-04-04T15:39:33.837Z,7.50
2018-04-04T15:42:01.606Z,6.87
2018-04-04T15:44:29.450Z,6.13
2018-04-04T15:46:57.221Z,8.07
2018-04-04T15:49:25.058Z,7.20
2018-04-04T15:51:53.623Z,6.77
2018-04-04T15:54:21.474Z,6.77
2018-04-04T15:56:49.253Z,6.17
2018-04-04T15:59:17.034Z,5.70
2018-04-04T16:01:44.808Z,5.10
2018-04-04T16:04:13.361Z,6.20
2018-04-04T16:06:41.145Z,8.10
2018-04-04T16:09:09.754Z,6.57
2018-04-04T16:11:37.531Z,8.60
2018-04-04T16:14:05.320Z,6.80
2018-04-04T16:16:33.863Z,6.57
2018-04-04T16:19:02.412Z,6.33
2018-04-04T16:21:30.182Z,5.93
2018-04-04T16:23:57.969Z,7.30
2018-04-04T16:26:26.615Z,6.07
2018-04-04T16:28:54.405Z,5.00
2018-04-04T16:31:22.957Z,6.20
2018-04-04T16:33:50.735Z,6.20
2018-04-04T16:36:18.511Z,5.17
2018-04-04T16:38:47.053Z,5.33
2018-04-04T16:41:14.869Z,5.70
2018-04-04T16:43:43.417Z,5.40
2018-04-04T16:46:11.234Z,5.60
2018-04-04T16:48:39.038Z,6.13
2018-04-04T16:51:06.816Z,8.97
2018-04-04T16:53:34.597Z,7.87
2018-04-04T16:56:02.380Z,7.20
2018-04-04T16:58:30.950Z,5.73
2018-04-04T17:00:59.497Z,6.00
2018-04-04T17:03:27.279Z,4.93
2018-04-04T17:05:55.061Z,5.10
2018-04-04T17:08:23.606Z,5.77
2018-04-04T17:10:51.384Z,5.57
2018-04-04T17:13:19.166Z,5.73
2018-04-04T17:18:20.915Z,6.20
2018-04-04T17:20:48.718Z,6.60
2018-04-04T17:23:17.326Z,5.83
2018-04-04T17:25:45.100Z,5.83
2018-04-04T17:28:12.901Z,6.33
2018-04-04T17:30:41.079Z,6.50
2018-04-04T17:33:08.850Z,5.53
2018-04-04T17:35:36.694Z,6.13
2018-04-04T17:38:04.658Z,5.70
2018-04-04T17:40:32.492Z,5.27
2018-04-04T17:43:00.336Z,6.53
2018-04-04T17:45:28.896Z,7.10
2018-04-04T17:47:56.736Z,5.97
2018-04-04T17:50:24.553Z,6.00
2018-04-04T17:52:52.363Z,6.43
2018-04-04T17:55:20.134Z,5.57
2018-04-04T17:57:47.917Z,5.67
2018-04-04T18:00:15.711Z,6.70
2018-04-04T18:02:43.498Z,5.63
2018-04-04T18:05:11.290Z,5.67
2018-04-04T18:07:39.071Z,5.90
2018-04-04T18:10:06.887Z,6.10
2018-04-04T18:12:34.709Z,5.47
2018-04-04T18:15:02.504Z,6.23
2018-04-04T18:17:30.289Z,6.73
2018-04-04T18:19:58.983Z,6.60
2018-04-04T18:22:26.856Z,7.00
2018-04-04T18:24:54.646Z,7.27
2018-04-04T18:27:22.429Z,6.37
2018-04-04T18:29:50.975Z,7.53
2018-04-04T18:32:18.878Z,7.27
2018-04-04T18:34:47.800Z,5.60
2018-04-04T18:37:15.642Z,6.40
2018-04-04T18:39:44.218Z,5.13
2018-04-04T18:42:12.787Z,5.97
2018-04-04T18:44:40.603Z,7.13
2018-04-04T18:47:08.388Z,8.70
2018-04-04T18:49:36.206Z,11.73
2018-04-04T18:52:04.746Z,12.23
2018-04-04T18:54:32.559Z,11.50
2018-04-04T18:57:01.114Z,10.03
2018-04-04T18:59:28.877Z,8.57
2018-04-04T19:01:56.667Z,9.27
2018-04-04T19:04:25.217Z,7.40
2018-04-04T19:06:53.048Z,8.40
2018-04-04T19:09:20.875Z,7.83
2018-04-04T19:11:49.424Z,7.47
2018-04-04T19:14:17.233Z,8.80
2018-04-04T19:16:45.026Z,8.60
2018-04-04T19:19:12.808Z,7.57
2018-04-04T19:21:41.378Z,10.70
2018-04-04T19:24:09.149Z,10.63
2018-04-04T19:26:36.945Z,7.33
2018-04-04T19:29:04.745Z,7.83
2018-04-04T19:31:32.530Z,8.50
2018-04-04T19:34:00.350Z,8.17
2018-04-04T19:36:28.922Z,7.30
2018-04-04T19:38:56.714Z,8.20
2018-04-04T19:41:25.262Z,7.60
2018-04-04T19:43:53.081Z,8.57
2018-04-04T19:46:20.853Z,6.83
2018-04-04T19:48:48.659Z,7.85
2018-04-04T19:51:16.464Z,8.07
2018-04-04T19:53:44.292Z,8.33
2018-04-04T19:56:12.143Z,7.50
2018-04-04T19:58:39.932Z,7.80
2018-04-04T20:01:08.505Z,7.63
2018-04-04T20:03:36.398Z,7.63
2018-04-04T20:06:04.224Z,7.17
2018-04-04T20:08:32.009Z,7.23
2018-04-04T20:10:59.778Z,7.80
2018-04-04T20:13:28.326Z,7.60
2018-04-04T20:15:56.276Z,10.33
2018-04-04T20:18:24.069Z,8.87
2018-04-04T20:20:51.902Z,11.83
2018-04-04T20:23:19.677Z,8.07
2018-04-04T20:25:47.481Z,8.23
2018-04-04T20:28:15.281Z,7.13
2018-04-04T20:30:43.114Z,8.67
2018-04-04T20:33:10.885Z,6.97
2018-04-04T20:35:39.438Z,6.70
2018-04-04T20:38:07.450Z,6.97
2018-04-04T20:40:39.531Z,7.20
2018-04-04T20:43:07.519Z,8.00
2018-04-04T22:16:51.541Z,7.20
2018-04-04T22:19:19.329Z,7.97
2018-04-04T22:21:47.142Z,6.33
2018-04-04T22:24:14.933Z,8.57
2018-04-04T22:26:42.689Z,7.87
2018-04-04T22:29:10.445Z,7.60
2018-04-04T22:31:38.210Z,6.40
2018-04-04T22:34:05.987Z,8.20
2018-04-04T22:36:33.745Z,8.17
2018-04-04T22:39:01.497Z,8.07
2018-04-04T22:41:29.264Z,7.50
2018-04-04T22:43:57.017Z,7.10
2018-04-04T22:46:24.772Z,6.67
2018-04-04T22:48:52.570Z,7.67
2018-04-04T22:51:20.341Z,8.30
2018-04-04T22:53:48.112Z,7.40
2018-04-04T22:56:15.901Z,6.87
2018-04-04T22:58:43.665Z,7.43
2018-04-04T23:01:11.442Z,8.13
2018-04-04T23:03:39.973Z,6.67
2018-04-04T23:06:07.732Z,7.73
2018-04-04T23:08:35.493Z,5.83
2018-04-04T23:11:03.269Z,6.47
2018-04-04T23:13:31.037Z,6.07
2018-04-04T23:15:58.837Z,5.33
2018-04-04T23:18:26.627Z,6.57
2018-04-04T23:20:54.396Z,6.50
2018-04-04T23:23:22.219Z,6.50
2018-04-04T23:25:49.973Z,5.63
2018-04-04T23:28:17.738Z,5.70
2018-04-04T23:30:46.261Z,6.30
2018-04-04T23:33:14.834Z,6.20
2018-04-04T23:35:43.354Z,5.97
2018-04-04T23:38:11.117Z,5.50
2018-04-04T23:40:38.899Z,6.17
2018-04-04T23:43:06.671Z,7.80
2018-04-04T23:45:35.205Z,6.20
2018-04-04T23:48:02.977Z,6.40
2018-04-04T23:50:30.741Z,5.07
2018-04-04T23:52:58.509Z,5.40
2018-04-04T23:55:26.292Z,4.80
2018-04-04T23:57:54.085Z,5.40
